Terminal Aerodrome Forecast
Issued by NWS Charleston, WV

Current Version | Previous Version | Graphics & Text | Print | Product List | Glossary On
Versions: 1 2 3 4 5 6 7 8 9 10 11 12 13 14 15 16 17 18 19 20 21
000
FTUS41 KRLX 101500 AAA
TAFEKN
TAF AMD
KEKN 101539Z 1016/1112 25003KT P6SM SKC
     FM110500 00000KT 4SM BR FEW035
     FM110600 00000KT 2SM BR FEW035
     FM111000 00000KT 3/4SM BR FEW090=

USA.gov is the U.S. government's official web portal to all federal, state and local government web resources and services.